KSFF/SFF METAR and TAF weather

Enter ICAO airport designator
Station Type Date Time Source
KSFF METAR 2022/12/08 11:53 UTC NOAA

KSFF 081153Z AUTO 25004KT 9SM OVC004 M03/M05 A3013 RMK AO2 SLP222 I6002 T10331050 11017 21033 50000


Station Type Date Time Source
KSFF Decoded METAR 2022/12/08 11:53 UTC NOAA

FELTS FIELD, WA, United States (KSFF) 47-41N 117-19W 609M
Dec 08, 2022 - 06:53 AM EST / 2022.12.08 1153 UTC
Wind: from the WSW (250 degrees) at 5 MPH (4 KT):0
Visibility: 9 mile(s):0
Sky conditions: overcast
Temperature: 26.1 F (-3.3 C)
Windchill: 19 F (-7 C):1
Dew Point: 23.0 F (-5.0 C)
Relative Humidity: 87%
Pressure (altimeter): 30.13 in. Hg (1020 hPa)
Pressure tendency: 0.00 inches (0.0 hPa) higher than three hours ago
ob: KSFF 081153Z AUTO 25004KT 9SM OVC004 M03/M05 A3013 RMK AO2 SLP222 I6002 T10331050 11017 21033 50000
cycle: 12

Station Type Date Time Source
KSFF TAF 2022/12/08 12:48 UTC NOAA

TAF KSFF 081145Z 0812/0912 00000KT P6SM OVC003
FM081500 VRB01KT 2SM BR OVC002
FM081900 VRB02KT 4SM BR OVC010
FM082100 18003KT 1SM -SN BR OVC015
FM090000 12004KT 3/4SM -SN OVC008
FM091000 22003KT 4SM BR OVC020

Example: see airport list